ADDS METAR Data INFO
IDs: Format: Raw Decoded Include TAF

Data at: 0751 UTC 17 Oct 2017

KHCD 170734Z AUTO 00000KT 10SM CLR 07/04 A2999 RMK AO2 T00660042
KHCD 170714Z AUTO 00000KT 10SM CLR 06/04 A2998 RMK AO2 T00620041
KHCD 170654Z AUTO 21003KT 10SM CLR 07/04 A2998 RMK AO2 T00660043
KHCD 170634Z AUTO 00000KT 10SM CLR 06/04 A2998 RMK AO2 T00610041
KHCD 170614Z AUTO 00000KT 10SM CLR 07/04 A2998 RMK AO2 T00660042
KHCD 170554Z AUTO 00000KT 10SM CLR 07/04 A2998 RMK AO2 T00720043 10142 20072 402070000
KHCD 170534Z AUTO 21004KT 10SM CLR 08/04 A2997 RMK AO2 T00800044
KHCD 170514Z AUTO 00000KT 10SM CLR 08/04 A2998 RMK AO2 T00830043
KHCD 170454Z AUTO 00000KT 10SM CLR 10/05 A2997 RMK AO2 T01030046
KHCD 170433Z AUTO 21003KT 10SM CLR 11/05 A2998 RMK AO2 T01080047
KHCD 170414Z AUTO 00000KT 10SM CLR 10/05 A2997 RMK AO2 T01030046
KHCD 170354Z AUTO 00000KT 10SM CLR 09/04 A2998 RMK AO2 T00920043
KHCD 170334Z AUTO 21003KT 10SM CLR 11/05 A2998 RMK AO2 T01120045
KHCD 170314Z AUTO 00000KT 10SM CLR 12/05 A2997 RMK AO2 T01160045
KHCD 170254Z AUTO 00000KT 10SM CLR 11/05 A2997 RMK AO2 T01120045
KHCD 170234Z AUTO 18004KT 10SM CLR 11/05 A2996 RMK AO2 T01130045
KHCD 170214Z AUTO 18004KT 10SM CLR 12/05 A2997 RMK AO2 T01180045
KHCD 170154Z AUTO 18004KT 10SM CLR 12/05 A2997 RMK AO2 T01190045
KHCD 170134Z AUTO 17004KT 10SM CLR 12/04 A2997 RMK AO2 T01210044
KHCD 170114Z AUTO 18004KT 10SM CLR 13/05 A2998 RMK AO2 T01280045
KHCD 170054Z AUTO 16005KT 10SM CLR 13/05 A2998 RMK AO2 T01270045
KHCD 170034Z AUTO 17005KT 10SM CLR 13/05 A2999 RMK AO2 T01280045
KHCD 170014Z AUTO 17005KT 10SM CLR 13/05 A2999 RMK AO2 T01300045
KHCD 162354Z AUTO 00000KT 10SM CLR 14/04 A2999 RMK AO2 T01440041 10207 20144
KHCD 162334Z AUTO 17003KT 10SM CLR 16/04 A2999 RMK AO2 T01570041
KHCD 162314Z AUTO 17005KT 10SM CLR 17/04 A2999 RMK AO2 T01690039
KHCD 162254Z AUTO 19004KT 10SM CLR 19/03 A3000 RMK AO2 T01860033
KHCD 162234Z AUTO 18006KT 10SM CLR 19/03 A3000 RMK AO2 T01940034
KHCD 162214Z AUTO 19006KT 10SM CLR 20/03 A3000 RMK AO2 T02020032
KHCD 162154Z AUTO 18007G14KT 10SM CLR 21/03 A3001 RMK AO2 T02050031
KHCD 162134Z AUTO 20007KT 10SM CLR 21/03 A3002 RMK AO2 T02050026
KHCD 162114Z AUTO 20007KT 10SM CLR 21/03 A3003 RMK AO2 T02050029
KHCD 162054Z AUTO 18009G14KT 10SM CLR 21/03 A3004 RMK AO2 T02050034
KHCD 162034Z AUTO 20007G15KT 160V220 10SM CLR 20/03 A3005 RMK AO2 T02020034
KHCD 162014Z AUTO 20007G15KT 170V230 10SM CLR 20/03 A3005 RMK AO2 T02040034
KHCD 161954Z AUTO 21010G14KT 10SM CLR 20/03 A3007 RMK AO2 T02010032
KHCD 161934Z AUTO 18011G16KT 10SM CLR 20/04 A3007 RMK AO2 T01960035
KHCD 161914Z AUTO 18011G15KT 10SM CLR 19/03 A3009 RMK AO2 T01900034
KHCD 161854Z AUTO 19010G15KT 150V220 10SM CLR 19/03 A3011 RMK AO2 T01870033
KHCD 161834Z AUTO 20008G15KT 170V230 10SM CLR 18/03 A3012 RMK AO2 T01820028
KHCD 161814Z AUTO 18009G14KT 150V210 10SM CLR 18/03 A3014 RMK AO2 T01750032
KHCD 161753Z AUTO 18009G16KT 10SM CLR 17/03 A3016 RMK AO2 T01670033 10168 20000
KHCD 161734Z AUTO 19007KT 10SM CLR 17/02 A3017 RMK AO2 T01650024
KHCD 161714Z AUTO 19010KT 10SM CLR 16/03 A3018 RMK AO2 T01590025
KHCD 161654Z AUTO 19008KT 10SM CLR 15/02 A3019 RMK AO2 T01500019
KHCD 161634Z AUTO 18006KT 10SM CLR 15/03 A3020 RMK AO2 T01450030
KHCD 161614Z AUTO 20006KT 10SM CLR 13/03 A3021 RMK AO2 T01320029
KHCD 161554Z AUTO 17006KT 10SM CLR 12/04 A3021 RMK AO2 T01220039
KHCD 161534Z AUTO 20005KT 10SM CLR 10/03 A3022 RMK AO2 T01040034
KHCD 161514Z AUTO 17003KT 10SM CLR 09/04 A3022 RMK AO2 T00900040
KHCD 161454Z AUTO 21003KT 10SM CLR 08/04 A3023 RMK AO2 T00760035
KHCD 161434Z AUTO 00000KT 10SM CLR 07/03 A3023 RMK AO2 T00650031
KHCD 161414Z AUTO 00000KT 10SM CLR 05/03 A3023 RMK AO2 T00530026
KHCD 161354Z AUTO 00000KT 10SM CLR 04/02 A3023 RMK AO2 T00400021
KHCD 161334Z AUTO 00000KT 10SM CLR 02/02 A3023 RMK AO2 T00210016
KHCD 161314Z AUTO 00000KT 10SM CLR 01/01 A3023 RMK AO2 T00090005
KHCD 161254Z AUTO 00000KT 10SM CLR 00/00 A3023 RMK AO2 T00030001
KHCD 161234Z AUTO 00000KT 10SM CLR 00/00 A3022 RMK AO2 T00000000
KHCD 161214Z AUTO 00000KT 10SM CLR 01/00 A3023 RMK AO2 T00050000
KHCD 161154Z AUTO 25003KT 10SM CLR 01/00 A3023 RMK AO2 T00080001 10029 20008
KHCD 161133Z AUTO 25004KT 10SM CLR 01/01 A3023 RMK AO2 T00130005
KHCD 161114Z AUTO 25004KT 10SM CLR 02/01 A3024 RMK AO2 T00150007
KHCD 161054Z AUTO 25003KT 10SM CLR 02/01 A3023 RMK AO2 T00200010
KHCD 161034Z AUTO 24004KT 10SM CLR 01/01 A3023 RMK AO2 T00110005
KHCD 161014Z AUTO 24004KT 10SM CLR 02/01 A3023 RMK AO2 T00160008
KHCD 160954Z AUTO 00000KT 10SM CLR 02/01 A3022 RMK AO2 T00160010
KHCD 160934Z AUTO 24003KT 10SM CLR 02/01 A3023 RMK AO2 T00200011
KHCD 160914Z AUTO 24003KT 10SM CLR 02/01 A3023 RMK AO2 T00180012
KHCD 160854Z AUTO 24004KT 10SM CLR 02/01 A3023 RMK AO2 T00180010
KHCD 160834Z AUTO 27003KT 10SM CLR 03/02 A3023 RMK AO2 T00250017
KHCD 160814Z AUTO 25003KT 10SM CLR 02/01 A3023 RMK AO2 T00200014
KHCD 160754Z AUTO 25003KT 10SM CLR 03/02 A3023 RMK AO2 T00280018
KHCD 160734Z AUTO 25004KT 10SM CLR 02/02 A3023 RMK AO2 T00210015
KHCD 160714Z AUTO 00000KT 10SM CLR 02/01 A3022 RMK AO2 T00190014
KHCD 160654Z AUTO 00000KT 10SM CLR 02/02 A3022 RMK AO2 T00220018
KHCD 160634Z AUTO 00000KT 10SM CLR 02/02 A3022 RMK AO2 T00210020
KHCD 160614Z AUTO 00000KT 10SM CLR 02/02 A3022 RMK AO2 T00160016
KHCD 160554Z AUTO 00000KT 10SM CLR 02/02 A3022 RMK AO2 T00170015 10088 20015 401250015
KHCD 160534Z AUTO 00000KT 10SM CLR 02/02 A3022 RMK AO2 T00240022
KHCD 160514Z AUTO 00000KT 10SM CLR 02/02 A3022 RMK AO2 T00200017
KHCD 160454Z AUTO 00000KT 10SM CLR 02/02 A3022 RMK AO2 T00230021
KHCD 160434Z AUTO 00000KT 10SM CLR 02/02 A3022 RMK AO2 T00210020
KHCD 160414Z AUTO 00000KT 10SM CLR 02/02 A3022 RMK AO2 T00230020
KHCD 160354Z AUTO 00000KT 10SM CLR 02/02 A3022 RMK AO2 T00220020
KHCD 160334Z AUTO 00000KT 10SM CLR 03/02 A3022 RMK AO2 T00280022
KHCD 160314Z AUTO 00000KT 10SM CLR 04/03 A3022 RMK AO2 T00440033
KHCD 160254Z AUTO 00000KT 10SM CLR 05/04 A3022 RMK AO2 T00470036
KHCD 160234Z AUTO 25003KT 10SM SCT080 SCT090 05/04 A3022 RMK AO2 T00470037
KHCD 160214Z AUTO 25003KT 10SM BKN090 05/04 A3022 RMK AO2 T00500041
KHCD 160154Z AUTO 26003KT 10SM BKN090 06/04 A3022 RMK AO2 T00570038
KHCD 160134Z AUTO 27004KT 10SM CLR 06/04 A3022 RMK AO2 T00570035
KHCD 160114Z AUTO 26004KT 10SM CLR 06/04 A3021 RMK AO2 T00630035
KHCD 160054Z AUTO 27003KT 10SM CLR 07/04 A3021 RMK AO2 T00660035
KHCD 160034Z AUTO 26003KT 10SM SCT085 07/04 A3020 RMK AO2 T00740035
KHCD 160014Z AUTO 00000KT 10SM BKN085 08/04 A3019 RMK AO2 T00800037
KHCD 152354Z AUTO 27003KT 10SM SCT085 09/03 A3019 RMK AO2 T00900034 10125 20090
KHCD 152334Z AUTO 26003KT 10SM BKN085 11/03 A3019 RMK AO2 T01060032
KHCD 152314Z AUTO 26006KT 10SM SCT048 OVC080 12/03 A3019 RMK AO2 T01180032
KHCD 152254Z AUTO 24007G16KT 10SM SCT048 SCT050 OVC080 12/03 A3019 RMK AO2 T01180030
KHCD 152234Z AUTO 24009KT 10SM BKN080 12/03 A3018 RMK AO2 T01200030
KHCD 152214Z AUTO 23007KT 10SM SCT080 12/03 A3018 RMK AO2 T01200028
KHCD 152154Z AUTO 23007KT 10SM BKN090 13/03 A3017 RMK AO2 T01250027
KHCD 152134Z AUTO 24005KT 10SM OVC090 12/02 A3018 RMK AO2 T01150022
KHCD 152114Z AUTO 23005KT 10SM OVC100 11/02 A3018 RMK AO2 T01120020
KHCD 152054Z AUTO 24006KT 10SM SCT065 BKN100 11/02 A3019 RMK AO2 T01120017
KHCD 152034Z AUTO 25007KT 10SM BKN065 BKN085 BKN110 11/02 A3019 RMK AO2 T01130017
KHCD 152014Z AUTO 25009KT 10SM BKN065 OVC090 11/02 A3020 RMK AO2 T01110018
KHCD 151954Z AUTO 28008KT 10SM SCT065 BKN090 BKN110 12/02 A3020 RMK AO2 T01160016